createdAt,value
2018-09-20T00:01:55.366Z,4.80
2018-09-20T00:04:23.403Z,5.70
2018-09-20T00:06:51.456Z,5.17
2018-09-20T00:09:19.566Z,5.73
2018-09-20T00:11:47.624Z,5.67
2018-09-20T00:14:15.664Z,5.53
2018-09-20T00:16:43.700Z,5.33
2018-09-20T00:19:11.750Z,5.57
2018-09-20T00:21:39.798Z,5.47
2018-09-20T00:24:07.851Z,5.93
2018-09-20T00:26:35.899Z,5.17
2018-09-20T00:29:03.958Z,5.30
2018-09-20T00:31:31.998Z,5.57
2018-09-20T00:34:00.049Z,4.83
2018-09-20T00:36:28.110Z,5.57
2018-09-20T00:38:56.156Z,5.63
2018-09-20T00:41:24.203Z,5.67
2018-09-20T00:43:52.243Z,5.23
2018-09-20T00:46:23.896Z,5.17
2018-09-20T00:48:52.499Z,5.53
2018-09-20T00:51:20.555Z,5.37
2018-09-20T00:53:48.615Z,5.20
2018-09-20T00:56:16.662Z,5.10
2018-09-20T00:58:44.718Z,5.80
2018-09-20T01:01:12.766Z,5.30
2018-09-20T01:03:40.824Z,5.23
2018-09-20T01:06:08.868Z,5.67
2018-09-20T01:08:36.920Z,5.50
2018-09-20T01:11:05.156Z,5.47
2018-09-20T01:13:33.217Z,5.60
2018-09-20T01:16:01.285Z,5.20
2018-09-20T01:18:29.332Z,5.77
2018-09-20T01:20:57.797Z,5.57
2018-09-20T01:23:25.846Z,5.30
2018-09-20T01:25:53.897Z,5.70
2018-09-20T01:28:21.941Z,5.10
2018-09-20T01:30:49.984Z,4.70
2018-09-20T01:33:18.045Z,5.17
2018-09-20T01:35:46.096Z,5.37
2018-09-20T01:38:14.155Z,5.20
2018-09-20T01:40:42.374Z,5.70
2018-09-20T01:43:10.432Z,5.13
2018-09-20T01:45:38.516Z,5.20
2018-09-20T01:48:06.603Z,5.17
2018-09-20T01:50:34.676Z,5.50
2018-09-20T01:53:02.737Z,5.03
2018-09-20T01:55:30.775Z,5.30
2018-09-20T01:57:58.833Z,4.80
2018-09-20T02:00:26.953Z,5.43
2018-09-20T02:02:55.186Z,4.53
2018-09-20T02:05:23.496Z,5.50
2018-09-20T02:07:51.561Z,4.60
2018-09-20T02:10:19.619Z,5.07
2018-09-20T02:12:47.689Z,5.40
2018-09-20T02:15:15.757Z,5.10
2018-09-20T02:17:43.814Z,5.13
2018-09-20T02:20:11.861Z,4.60
2018-09-20T02:22:39.911Z,5.50
2018-09-20T02:25:07.963Z,4.57
2018-09-20T02:27:36.035Z,5.00
2018-09-20T02:30:04.104Z,4.70
2018-09-20T02:32:32.159Z,5.17
2018-09-20T02:35:00.229Z,5.00
2018-09-20T02:37:28.294Z,5.07
2018-09-20T02:39:56.340Z,4.63
2018-09-20T02:42:25.391Z,4.93
2018-09-20T02:44:53.457Z,5.07
2018-09-20T02:47:21.529Z,5.43
2018-09-20T02:49:49.593Z,5.30
2018-09-20T02:52:17.657Z,4.80
2018-09-20T02:54:45.722Z,5.07
2018-09-20T02:57:13.769Z,4.60
2018-09-20T02:59:41.816Z,5.47
2018-09-20T03:02:09.876Z,4.93
2018-09-20T03:04:37.937Z,5.33
2018-09-20T03:07:05.985Z,5.23
2018-09-20T03:09:34.084Z,4.90
2018-09-20T03:12:02.149Z,5.13
2018-09-20T03:14:30.497Z,5.10
2018-09-20T03:16:58.561Z,5.03
2018-09-20T03:19:26.617Z,5.60
2018-09-20T03:21:54.673Z,5.23
2018-09-20T03:24:22.734Z,5.63
2018-09-20T03:26:51.404Z,5.27
2018-09-20T03:29:19.457Z,5.60
2018-09-20T03:31:47.557Z,5.73
2018-09-20T03:34:15.604Z,5.43
2018-09-20T03:36:43.657Z,6.60
2018-09-20T03:39:12.340Z,5.90
2018-09-20T03:41:40.930Z,5.83
2018-09-20T03:44:09.096Z,5.07
2018-09-20T03:46:37.169Z,5.60
2018-09-20T03:49:05.346Z,5.67
2018-09-20T03:51:33.407Z,6.30
2018-09-20T03:54:01.488Z,5.60
2018-09-20T03:56:29.554Z,5.60
2018-09-20T03:58:57.636Z,6.10
2018-09-20T04:01:25.697Z,5.93
2018-09-20T04:03:53.754Z,6.03
2018-09-20T04:06:21.868Z,6.20
2018-09-20T04:08:49.952Z,6.10
2018-09-20T04:11:17.999Z,6.33
2018-09-20T04:13:46.069Z,6.57
2018-09-20T04:16:14.112Z,5.43
2018-09-20T04:18:42.185Z,6.60
2018-09-20T04:21:10.220Z,6.53
2018-09-20T04:23:38.827Z,5.50
2018-09-20T04:26:07.077Z,6.03
2018-09-20T04:28:35.141Z,5.83
2018-09-20T04:31:03.205Z,5.93
2018-09-20T04:33:31.235Z,5.73
2018-09-20T04:35:59.293Z,5.50
2018-09-20T04:38:28.048Z,5.73
2018-09-20T04:40:56.106Z,6.70
2018-09-20T04:43:24.144Z,5.70
2018-09-20T04:45:52.192Z,5.83
2018-09-20T04:48:20.276Z,6.13
2018-09-20T04:50:48.338Z,6.10
2018-09-20T04:53:16.442Z,6.03
2018-09-20T04:55:44.455Z,5.77
2018-09-20T04:58:12.509Z,6.27
2018-09-20T05:00:40.563Z,5.83
2018-09-20T05:03:08.625Z,6.30
2018-09-20T05:05:36.681Z,5.97
2018-09-20T05:08:04.719Z,6.33
2018-09-20T05:10:32.845Z,5.80
2018-09-20T05:13:00.893Z,6.93
2018-09-20T05:15:28.957Z,6.07
2018-09-20T05:17:57.005Z,6.60
2018-09-20T05:20:25.051Z,6.70
2018-09-20T05:22:53.100Z,6.83
2018-09-20T05:25:21.164Z,6.30
2018-09-20T05:27:49.213Z,7.13
2018-09-20T05:30:17.282Z,6.17
2018-09-20T05:32:45.611Z,7.00
2018-09-20T05:35:13.660Z,7.07
2018-09-20T05:38:15.330Z,6.90
2018-09-20T05:40:43.382Z,7.03
2018-09-20T05:43:11.415Z,6.90
2018-09-20T05:45:39.469Z,6.87
2018-09-20T05:48:07.522Z,6.43
2018-09-20T05:50:35.634Z,6.97
2018-09-20T05:53:03.713Z,8.63
2018-09-20T05:55:31.768Z,7.87
2018-09-20T05:57:59.820Z,7.83
2018-09-20T06:00:27.867Z,9.07
2018-09-20T06:02:55.991Z,7.27
2018-09-20T06:05:24.032Z,7.73
2018-09-20T06:07:52.085Z,6.50
2018-09-20T06:10:20.133Z,6.57
2018-09-20T06:12:48.180Z,6.97
2018-09-20T06:15:16.228Z,7.00
2018-09-20T06:17:44.285Z,5.87
2018-09-20T06:20:12.324Z,7.10
2018-09-20T06:22:40.373Z,6.03
2018-09-20T06:25:08.432Z,6.40
2018-09-20T06:27:36.470Z,7.10
2018-09-20T06:30:04.805Z,6.17
2018-09-20T06:32:32.877Z,5.97
2018-09-20T06:35:00.981Z,6.57
2018-09-20T06:37:28.992Z,6.80
2018-09-20T06:39:57.051Z,6.37
2018-09-20T06:42:25.095Z,6.10
2018-09-20T06:44:53.152Z,6.23
2018-09-20T06:47:21.192Z,6.57
2018-09-20T06:49:49.264Z,6.43
2018-09-20T06:52:17.325Z,6.40
2018-09-20T06:54:45.359Z,6.33
2018-09-20T06:57:13.410Z,8.07
2018-09-20T06:59:41.728Z,5.47
2018-09-20T07:02:09.785Z,5.63
2018-09-20T07:04:37.844Z,6.03
2018-09-20T07:07:05.920Z,5.33
2018-09-20T07:09:33.959Z,6.30
2018-09-20T07:12:02.013Z,5.20
2018-09-20T07:14:30.066Z,5.43
2018-09-20T07:16:58.116Z,5.27
2018-09-20T07:19:26.175Z,4.80
2018-09-20T07:21:54.228Z,4.93
2018-09-20T07:24:22.281Z,4.83
2018-09-20T07:26:50.328Z,4.80
2018-09-20T07:29:18.368Z,4.40
2018-09-20T07:31:46.407Z,4.60
2018-09-20T07:34:14.517Z,3.77
2018-09-20T07:36:42.563Z,4.43
2018-09-20T07:39:11.062Z,4.57
2018-09-20T07:41:39.544Z,4.53
2018-09-20T07:44:07.672Z,4.73
2018-09-20T07:46:35.728Z,4.53
2018-09-20T07:49:03.920Z,4.53
2018-09-20T07:51:32.008Z,4.20
2018-09-20T07:54:00.213Z,4.27
2018-09-20T07:56:28.319Z,4.33
2018-09-20T07:58:56.359Z,4.77
2018-09-20T08:01:24.423Z,4.83
2018-09-20T08:03:52.464Z,4.23
2018-09-20T08:06:20.512Z,5.00
2018-09-20T08:08:48.539Z,4.40
2018-09-20T08:11:16.596Z,4.33
2018-09-20T08:13:44.870Z,4.13
2018-09-20T08:16:13.048Z,4.60
2018-09-20T08:18:41.105Z,4.20
2018-09-20T08:21:09.605Z,4.30
2018-09-20T08:23:37.656Z,4.93
2018-09-20T08:26:05.721Z,5.00
2018-09-20T08:28:33.787Z,4.53
2018-09-20T08:31:01.852Z,4.73
2018-09-20T08:33:29.900Z,4.40
2018-09-20T08:35:57.948Z,5.33
2018-09-20T08:38:26.000Z,4.43
2018-09-20T08:40:54.049Z,4.93
2018-09-20T08:43:22.108Z,4.30
2018-09-20T08:45:50.147Z,4.77
2018-09-20T08:48:18.184Z,4.57
2018-09-20T08:50:46.242Z,4.37
2018-09-20T08:53:14.315Z,4.60
2018-09-20T08:55:42.364Z,4.20
2018-09-20T08:58:10.425Z,4.00
2018-09-20T09:00:38.454Z,4.30
2018-09-20T09:03:06.511Z,4.27
2018-09-20T09:05:34.561Z,4.50
2018-09-20T09:08:02.604Z,4.77
2018-09-20T09:10:30.656Z,4.03
2018-09-20T09:12:58.705Z,5.00
2018-09-20T09:15:26.757Z,4.77
2018-09-20T09:17:54.791Z,4.07
2018-09-20T09:20:22.855Z,4.07
2018-09-20T09:22:50.907Z,4.60
2018-09-20T09:25:18.947Z,4.20
2018-09-20T09:27:47.004Z,4.30
2018-09-20T09:30:15.044Z,4.30
2018-09-20T09:32:43.075Z,4.97
2018-09-20T09:35:11.129Z,4.13
2018-09-20T09:37:39.180Z,4.00
2018-09-20T09:40:07.661Z,4.43
2018-09-20T09:42:35.735Z,4.80
2018-09-20T09:45:03.837Z,4.53
2018-09-20T09:47:31.890Z,4.40
2018-09-20T09:49:59.937Z,5.17
2018-09-20T09:52:28.000Z,4.43
2018-09-20T09:54:56.070Z,4.53
2018-09-20T09:57:24.112Z,4.37
2018-09-20T09:59:52.420Z,4.90
2018-09-20T10:02:20.401Z,4.37
2018-09-20T10:04:48.463Z,3.93
2018-09-20T10:07:16.630Z,4.90
2018-09-20T10:09:44.640Z,4.60
2018-09-20T10:12:12.701Z,4.30
2018-09-20T10:14:40.753Z,4.40
2018-09-20T10:17:08.825Z,4.57
2018-09-20T10:19:36.871Z,3.80
2018-09-20T10:22:04.930Z,4.07
2018-09-20T10:24:33.071Z,4.17
2018-09-20T10:27:01.137Z,4.53
2018-09-20T10:29:29.189Z,4.40
2018-09-20T10:31:57.253Z,4.40
2018-09-20T10:34:25.305Z,5.40
2018-09-20T10:36:53.405Z,4.97
2018-09-20T10:39:21.447Z,4.50
2018-09-20T10:41:49.483Z,4.73
2018-09-20T10:44:17.511Z,5.20
2018-09-20T10:46:45.569Z,4.20
2018-09-20T10:49:13.612Z,4.37
2018-09-20T10:51:41.664Z,4.53
2018-09-20T10:54:09.706Z,4.53
2018-09-20T10:56:37.745Z,3.70
2018-09-20T10:59:05.787Z,3.67
2018-09-20T11:01:33.929Z,4.00
2018-09-20T11:04:01.981Z,4.70
2018-09-20T11:06:30.028Z,4.50
2018-09-20T11:08:58.067Z,4.13
2018-09-20T11:11:26.185Z,4.27
2018-09-20T11:13:54.237Z,4.60
2018-09-20T11:16:22.263Z,3.97
2018-09-20T11:18:50.331Z,4.30
2018-09-20T11:21:18.463Z,4.83
2018-09-20T11:23:46.527Z,4.50
2018-09-20T11:26:14.561Z,4.00
2018-09-20T11:28:42.607Z,4.20
2018-09-20T11:31:10.651Z,4.17
2018-09-20T11:33:38.701Z,4.17
2018-09-20T11:36:07.185Z,4.40
2018-09-20T11:38:35.254Z,4.50
2018-09-20T11:41:03.291Z,4.13
2018-09-20T11:43:31.348Z,4.00
2018-09-20T11:45:59.409Z,3.90
2018-09-20T11:48:27.474Z,4.43
2018-09-20T11:50:55.525Z,4.30
2018-09-20T11:53:23.585Z,4.20
2018-09-20T11:55:51.627Z,4.53
2018-09-20T11:58:19.668Z,4.43
2018-09-20T12:00:47.709Z,4.47
2018-09-20T12:03:15.764Z,4.60
2018-09-20T12:05:43.813Z,4.30
2018-09-20T12:08:11.852Z,4.37
2018-09-20T12:10:39.899Z,4.73
2018-09-20T12:13:07.941Z,4.37
2018-09-20T12:15:35.982Z,3.97
2018-09-20T12:18:04.056Z,4.43
2018-09-20T12:20:32.083Z,4.77
2018-09-20T12:23:00.153Z,4.50
2018-09-20T12:25:28.188Z,4.10
2018-09-20T12:27:56.230Z,4.30
2018-09-20T12:30:24.263Z,4.50
2018-09-20T12:32:52.335Z,4.13
2018-09-20T12:35:20.418Z,4.00
2018-09-20T12:37:48.442Z,4.13
2018-09-20T12:40:20.354Z,4.00
2018-09-20T12:42:48.439Z,4.67
2018-09-20T12:45:16.472Z,4.53
2018-09-20T12:47:44.533Z,3.87
2018-09-20T12:50:12.581Z,4.60
2018-09-20T12:52:40.633Z,4.37
2018-09-20T12:55:08.739Z,4.20
2018-09-20T12:57:38.218Z,4.67
2018-09-20T13:00:07.874Z,4.83
2018-09-20T13:02:35.915Z,4.07
2018-09-20T13:05:04.092Z,3.80
2018-09-20T13:07:32.136Z,4.23
2018-09-20T13:10:00.200Z,4.67
2018-09-20T13:12:28.241Z,4.50
2018-09-20T13:14:56.293Z,4.47
2018-09-20T13:17:24.330Z,4.80
2018-09-20T13:19:52.417Z,4.33
2018-09-20T13:22:20.477Z,4.13
2018-09-20T13:24:48.529Z,4.77
2018-09-20T13:27:16.585Z,4.50
2018-09-20T13:29:44.730Z,4.53
2018-09-20T13:32:12.781Z,4.97
2018-09-20T13:34:40.833Z,4.33
2018-09-20T13:37:08.890Z,4.50
2018-09-20T13:39:36.959Z,4.00
2018-09-20T13:42:04.999Z,4.13
2018-09-20T13:44:33.157Z,4.37
2018-09-20T13:47:01.205Z,4.47
2018-09-20T13:49:29.260Z,4.37
2018-09-20T13:51:57.303Z,4.40
2018-09-20T13:54:25.347Z,4.50
2018-09-20T13:56:53.408Z,4.17
2018-09-20T13:59:21.499Z,4.33
2018-09-20T14:01:49.554Z,4.30
2018-09-20T14:04:17.595Z,4.83
2018-09-20T14:06:45.653Z,4.27
2018-09-20T14:09:13.709Z,4.47
2018-09-20T14:11:41.769Z,4.33
2018-09-20T14:14:09.832Z,4.23
2018-09-20T14:16:37.888Z,4.33
2018-09-20T14:19:06.425Z,4.37
2018-09-20T14:21:34.511Z,4.40
2018-09-20T14:24:02.585Z,3.93
2018-09-20T14:26:30.638Z,4.10
2018-09-20T14:28:58.808Z,3.90
2018-09-20T14:31:26.851Z,3.87
2018-09-20T14:33:54.927Z,4.40
2018-09-20T14:36:23.103Z,4.53
2018-09-20T14:38:51.152Z,4.43
2018-09-20T14:41:19.217Z,3.87
2018-09-20T14:43:47.277Z,4.70
2018-09-20T14:46:15.353Z,3.93
2018-09-20T14:48:43.404Z,4.00
2018-09-20T14:51:11.453Z,3.63
2018-09-20T14:53:39.504Z,3.83
2018-09-20T14:56:07.574Z,4.00
2018-09-20T14:58:36.372Z,4.13
2018-09-20T15:01:06.175Z,4.60
2018-09-20T15:03:34.232Z,4.07
2018-09-20T15:06:02.325Z,4.30
2018-09-20T15:08:30.438Z,4.17
2018-09-20T15:10:59.075Z,4.00
2018-09-20T15:13:27.343Z,4.37
2018-09-20T15:15:55.392Z,4.13
2018-09-20T15:18:23.446Z,4.20
2018-09-20T15:20:51.517Z,3.80
2018-09-20T15:23:19.840Z,3.63
2018-09-20T15:25:47.923Z,4.43
2018-09-20T15:28:16.216Z,3.93
2018-09-20T15:30:44.268Z,4.00
2018-09-20T15:33:12.353Z,3.80
2018-09-20T15:35:40.425Z,4.90
2018-09-20T15:38:08.520Z,4.17
2018-09-20T15:40:36.642Z,4.03
2018-09-20T15:43:04.715Z,4.00
2018-09-20T15:45:32.773Z,4.60
2018-09-20T15:48:00.825Z,3.60
2018-09-20T15:50:29.136Z,3.73
2018-09-20T15:52:57.182Z,3.90
2018-09-20T15:55:25.254Z,4.00
2018-09-20T15:57:53.355Z,4.00
2018-09-20T16:00:21.431Z,3.87
2018-09-20T16:02:49.480Z,4.23
2018-09-20T16:05:17.537Z,4.20
2018-09-20T16:07:45.585Z,3.80
2018-09-20T16:10:13.627Z,3.57
2018-09-20T16:12:41.695Z,3.90
2018-09-20T16:15:09.840Z,4.37
2018-09-20T16:17:37.880Z,3.90
2018-09-20T16:20:06.941Z,3.90
2018-09-20T16:22:35.092Z,4.20
2018-09-20T16:25:03.149Z,4.00
2018-09-20T16:27:31.188Z,3.97
2018-09-20T16:30:36.545Z,3.60
2018-09-20T16:33:15.451Z,4.00
2018-09-20T16:35:51.646Z,3.60
2018-09-20T16:38:55.492Z,3.97
2018-09-20T16:41:28.432Z,4.20
2018-09-20T16:43:56.469Z,4.27
2018-09-20T16:46:24.521Z,4.20
2018-09-20T16:48:52.558Z,4.93
2018-09-20T16:51:20.604Z,6.20
2018-09-20T16:53:48.649Z,3.93
2018-09-20T16:56:16.690Z,4.00
2018-09-20T16:58:50.976Z,4.03
2018-09-20T17:01:19.773Z,4.23
2018-09-20T17:03:48.027Z,3.90
2018-09-20T17:06:16.433Z,4.60
2018-09-20T17:08:44.901Z,4.53
2018-09-20T17:11:12.952Z,4.40
2018-09-20T17:13:41.243Z,4.10
2018-09-20T17:16:09.389Z,3.97
2018-09-20T17:18:37.496Z,4.37
2018-09-20T17:21:05.609Z,3.63
2018-09-20T17:23:33.655Z,4.30
2018-09-20T17:26:01.917Z,4.20
2018-09-20T17:28:29.964Z,4.43
2018-09-20T17:30:58.049Z,4.17
2018-09-20T17:33:26.096Z,3.60
2018-09-20T17:35:54.702Z,3.80
2018-09-20T17:38:23.135Z,4.27
2018-09-20T17:40:56.070Z,4.27
2018-09-20T17:43:28.852Z,4.00
2018-09-20T17:45:56.893Z,4.80
2018-09-20T17:48:24.984Z,5.20
2018-09-20T17:50:53.188Z,5.27
2018-09-20T17:53:21.601Z,5.70
2018-09-20T17:55:50.054Z,5.10
2018-09-20T17:58:18.670Z,5.10
2018-09-20T18:00:46.716Z,4.60
2018-09-20T18:03:14.766Z,4.70
2018-09-20T18:05:42.853Z,4.40
2018-09-20T18:08:11.021Z,5.00
2018-09-20T18:10:39.239Z,4.90
2018-09-20T18:13:07.872Z,4.77
2018-09-20T18:15:35.933Z,4.70
2018-09-20T18:18:04.075Z,4.73
2018-09-20T18:20:32.036Z,4.43
2018-09-20T18:23:00.086Z,4.43
2018-09-20T18:25:28.144Z,4.27
2018-09-20T18:27:56.207Z,3.90
2018-09-20T18:30:24.321Z,4.47
2018-09-20T18:32:52.376Z,4.40
2018-09-20T18:35:20.412Z,4.20
2018-09-20T18:37:48.863Z,4.20
2018-09-20T18:40:16.917Z,4.23
2018-09-20T18:42:44.992Z,4.33
2018-09-20T18:45:13.033Z,4.77
2018-09-20T18:47:41.105Z,4.70
2018-09-20T18:50:09.271Z,4.67
2018-09-20T18:52:37.276Z,4.77
2018-09-20T18:55:05.988Z,4.50
2018-09-20T18:57:34.073Z,5.20
2018-09-20T19:00:02.124Z,4.70
2018-09-20T19:02:30.275Z,4.70
2018-09-20T19:04:58.307Z,5.30
2018-09-20T19:07:26.393Z,5.30
2018-09-20T19:09:54.597Z,4.93
2018-09-20T19:12:22.811Z,5.00
2018-09-20T19:14:50.886Z,4.63
2018-09-20T19:17:18.941Z,4.97
2018-09-20T19:19:47.025Z,4.33
2018-09-20T19:22:15.086Z,4.53
2018-09-20T19:24:43.138Z,4.20
2018-09-20T19:27:11.193Z,4.77
2018-09-20T19:29:39.362Z,4.90
2018-09-20T19:32:07.478Z,4.73
2018-09-20T19:34:35.541Z,4.23
2018-09-20T19:37:03.592Z,4.17
2018-09-20T19:39:31.654Z,4.60
2018-09-20T19:41:59.719Z,3.93
2018-09-20T19:44:27.780Z,4.13
2018-09-20T19:46:55.854Z,4.27
2018-09-20T19:49:23.897Z,4.63
2018-09-20T19:51:51.973Z,4.30
2018-09-20T19:54:20.010Z,4.27
2018-09-20T19:56:48.069Z,4.20
2018-09-20T19:59:16.131Z,4.47
2018-09-20T20:01:44.222Z,4.33
2018-09-20T20:04:12.267Z,4.67
2018-09-20T20:06:40.316Z,4.57
2018-09-20T20:09:10.246Z,4.63
2018-09-20T20:11:38.728Z,4.73
2018-09-20T20:14:06.780Z,4.53
2018-09-20T20:16:34.827Z,4.90
2018-09-20T20:19:02.904Z,4.80
2018-09-20T20:21:30.964Z,4.30
2018-09-20T20:23:59.019Z,4.33
2018-09-20T20:26:27.059Z,4.90
2018-09-20T20:28:55.141Z,4.53
2018-09-20T20:31:23.209Z,4.30
2018-09-20T20:33:51.267Z,4.10
2018-09-20T20:36:19.325Z,4.17
2018-09-20T20:38:47.391Z,4.77
2018-09-20T20:41:15.460Z,4.53
2018-09-20T20:43:43.508Z,4.47
2018-09-20T20:46:11.558Z,4.70
2018-09-20T20:48:39.629Z,5.00
2018-09-20T20:51:07.673Z,4.93
2018-09-20T20:53:35.724Z,4.43
2018-09-20T20:56:03.772Z,4.80
2018-09-20T20:58:31.896Z,4.43
2018-09-20T21:00:59.882Z,4.37
2018-09-20T21:03:27.931Z,4.00
2018-09-20T21:05:55.955Z,3.93
2018-09-20T21:08:24.000Z,4.40
2018-09-20T21:10:52.042Z,3.90
2018-09-20T21:13:20.089Z,4.10
2018-09-20T21:15:48.148Z,4.27
2018-09-20T21:18:16.182Z,4.73
2018-09-20T21:20:44.288Z,4.67
2018-09-20T21:23:12.357Z,3.83
2018-09-20T21:25:40.405Z,4.43
2018-09-20T21:28:08.456Z,4.93
2018-09-20T21:30:36.492Z,4.60
2018-09-20T21:33:04.557Z,3.90
2018-09-20T21:35:32.601Z,4.43
2018-09-20T21:38:00.659Z,4.27
2018-09-20T21:40:28.761Z,3.80
2018-09-20T21:42:56.813Z,4.30
2018-09-20T21:45:24.851Z,4.37
2018-09-20T21:47:52.932Z,4.60
2018-09-20T21:50:20.981Z,4.80
2018-09-20T21:52:49.037Z,4.17
2018-09-20T21:55:17.093Z,4.70
2018-09-20T21:57:45.144Z,4.00
2018-09-20T22:00:13.192Z,4.27
2018-09-20T22:02:46.870Z,4.70
2018-09-20T22:05:14.921Z,4.30
2018-09-20T22:07:42.980Z,4.40
2018-09-20T22:10:11.036Z,4.30
2018-09-20T22:12:39.089Z,4.40
2018-09-20T22:15:11.401Z,4.03
2018-09-20T22:17:39.456Z,4.00
2018-09-20T22:20:07.504Z,4.13
2018-09-20T22:22:35.552Z,4.43
2018-09-20T22:25:03.599Z,4.17
2018-09-20T22:27:31.751Z,4.57
2018-09-20T22:29:59.782Z,4.23
2018-09-20T22:32:27.853Z,4.73
2018-09-20T22:34:55.912Z,3.90
2018-09-20T22:37:23.959Z,4.40
2018-09-20T22:39:52.096Z,4.50
2018-09-20T22:42:20.168Z,4.10
2018-09-20T22:44:48.262Z,4.40
2018-09-20T22:47:16.269Z,5.07
2018-09-20T22:49:44.373Z,4.33
2018-09-20T22:52:12.393Z,4.93
2018-09-20T22:54:40.444Z,4.57
2018-09-20T22:57:08.500Z,4.47
2018-09-20T22:59:36.571Z,4.60
2018-09-20T23:02:04.612Z,5.13
2018-09-20T23:04:32.664Z,4.90
2018-09-20T23:07:00.703Z,4.60
2018-09-20T23:09:28.757Z,4.47
2018-09-20T23:11:56.821Z,4.47
2018-09-20T23:14:24.882Z,4.67
2018-09-20T23:16:53.246Z,4.60
2018-09-20T23:19:21.287Z,5.47
2018-09-20T23:21:49.319Z,4.50
2018-09-20T23:24:17.392Z,4.80
2018-09-20T23:26:45.629Z,5.37
2018-09-20T23:29:13.680Z,4.50
2018-09-20T23:31:41.729Z,4.60
2018-09-20T23:34:09.800Z,4.53
2018-09-20T23:36:37.900Z,5.10
2018-09-20T23:39:08.259Z,4.37
2018-09-20T23:41:36.406Z,4.93
2018-09-20T23:44:04.589Z,4.60
2018-09-20T23:46:32.669Z,4.70
2018-09-20T23:49:00.731Z,4.47
2018-09-20T23:51:28.886Z,4.90
2018-09-20T23:53:56.932Z,4.43
2018-09-20T23:56:24.968Z,4.60
2018-09-20T23:58:53.216Z,4.13
